FAWB

Wonderboom Airport

Airport
ICAO code
FAWB
IATA Code
PRY
Summary
ICAO Region
AFI
ICAO Territory
Location

Pretoria, Gauteng

Serving
Pretoria
Elevation
4095 ft
Coordinates
25° 39' 14" S , 28° 13' 27" E
KCC
Metar
Observation
FAWB 281500Z AUTO 29006KT //// // ////// 21/13 Q1021
Station
Wonderboom / Pretoria
Date/Time
2023-03-28 15:00:00
Wind direction
290°
Wind speed
06 kts
Lowest cloud amount
n/a
Temperature
21°C
Dew point
13°C
Humidity
60%
QNH
1021 hPa
Weather condition
n/a

Description

Airport handling general aviation traffic north of Pretoria, South Africa.

Climatology

Within the Köppen Climate Classification System, ((Koppen climate classification Cwa)) this climate type generally has warm and humid summers with mild dry winters. Convective thunderstorms provide precipitation in the summer months.

Runways

Designator Length Width Surface Rops
6/24 1280 22 ASP No/No
11/29 1828 30 ASP No/No

Airport map

Aerial View

SKYbrary Partners:

Safety knowledge contributed by: